createdAt,value
2018-07-22T00:02:16.936Z,10.80
2018-07-22T00:04:57.767Z,10.67
2018-07-22T00:07:38.903Z,11.67
2018-07-22T00:10:25.671Z,11.13
2018-07-22T00:13:06.765Z,11.77
2018-07-22T00:15:47.815Z,11.60
2018-07-22T00:18:29.051Z,11.00
2018-07-22T00:21:09.644Z,11.77
2018-07-22T00:23:50.597Z,11.93
2018-07-22T00:26:31.793Z,12.10
2018-07-22T00:29:12.610Z,11.87
2018-07-22T00:31:53.238Z,11.37
2018-07-22T00:34:33.912Z,11.93
2018-07-22T00:37:14.366Z,13.57
2018-07-22T00:39:54.952Z,13.93
2018-07-22T00:42:35.821Z,12.40
2018-07-22T00:45:22.997Z,11.70
2018-07-22T00:48:03.968Z,11.10
2018-07-22T00:50:44.927Z,10.73
2018-07-22T00:53:25.857Z,10.10
2018-07-22T00:56:07.218Z,10.50
2018-07-22T00:58:48.460Z,10.20
2018-07-22T01:01:29.063Z,9.53
2018-07-22T01:04:10.268Z,9.30
2018-07-22T01:06:51.524Z,9.20
2018-07-22T01:09:32.112Z,9.40
2018-07-22T01:12:13.424Z,8.90
2018-07-22T01:14:53.827Z,8.87
2018-07-22T01:17:34.825Z,8.47
2018-07-22T01:20:15.404Z,8.40
2018-07-22T01:22:56.300Z,9.13
2018-07-22T01:25:36.947Z,9.73
2018-07-22T01:28:17.866Z,9.90
2018-07-22T01:30:58.440Z,9.57
2018-07-22T01:33:39.254Z,9.03
2018-07-22T01:36:19.815Z,9.43
2018-07-22T01:39:01.392Z,9.57
2018-07-22T01:41:42.260Z,8.97
2018-07-22T01:44:23.209Z,8.50
2018-07-22T01:47:04.115Z,9.17
2018-07-22T01:49:44.798Z,8.90
2018-07-22T01:52:25.694Z,9.70
2018-07-22T01:55:06.507Z,9.07
2018-07-22T01:57:47.026Z,9.47
2018-07-22T02:00:28.029Z,9.53
2018-07-22T02:03:08.943Z,9.80
2018-07-22T02:05:49.979Z,9.40
2018-07-22T02:08:30.690Z,9.80
2018-07-22T02:11:11.570Z,9.50
2018-07-22T02:13:52.489Z,8.87
2018-07-22T02:16:33.751Z,8.80
2018-07-22T02:19:14.156Z,8.57
2018-07-22T02:21:54.893Z,8.83
2018-07-22T02:24:35.735Z,8.70
2018-07-22T02:27:16.564Z,9.70
2018-07-22T02:29:57.095Z,8.93
2018-07-22T02:32:38.732Z,9.47
2018-07-22T02:35:19.329Z,9.73
2018-07-22T02:37:59.826Z,9.40
2018-07-22T02:40:40.279Z,9.30
2018-07-22T02:43:20.684Z,9.50
2018-07-22T02:46:01.853Z,9.27
2018-07-22T02:48:42.604Z,9.70
2018-07-22T02:51:23.546Z,12.20
2018-07-22T02:54:04.733Z,13.03
2018-07-22T02:56:46.273Z,14.00
2018-07-22T02:59:26.792Z,12.20
2018-07-22T03:02:07.325Z,13.60
2018-07-22T03:04:48.253Z,13.87
2018-07-22T03:07:28.883Z,15.90
2018-07-22T03:10:09.653Z,14.87
2018-07-22T03:12:50.437Z,14.80
2018-07-22T03:15:31.132Z,13.80
2018-07-22T03:18:11.623Z,15.27
2018-07-22T03:20:52.045Z,16.97
2018-07-22T03:23:32.645Z,18.07
2018-07-22T03:26:13.377Z,18.53
2018-07-22T03:28:54.132Z,16.83
2018-07-22T03:31:34.793Z,15.80
2018-07-22T03:34:15.517Z,17.93
2018-07-22T03:36:56.108Z,17.93
2018-07-22T03:39:37.332Z,17.77
2018-07-22T03:42:18.403Z,19.77
2018-07-22T03:44:59.358Z,20.07
2018-07-22T03:47:40.692Z,18.90
2018-07-22T03:50:21.501Z,17.43
2018-07-22T03:53:02.074Z,17.87
2018-07-22T03:55:43.049Z,19.60
2018-07-22T03:58:24.323Z,17.63
2018-07-22T04:01:05.371Z,19.37
2018-07-22T04:03:45.885Z,17.67
2018-07-22T04:06:26.492Z,18.40
2018-07-22T04:09:09.661Z,18.17
2018-07-22T04:11:50.969Z,19.37
2018-07-22T04:14:31.641Z,18.60
2018-07-22T04:17:13.726Z,17.57
2018-07-22T04:19:54.267Z,18.80
2018-07-22T04:22:34.969Z,19.47
2018-07-22T04:25:15.703Z,19.77
2018-07-22T04:27:56.634Z,18.60
2018-07-22T04:30:37.685Z,19.23
2018-07-22T04:33:18.681Z,18.33
2018-07-22T04:35:59.328Z,18.57
2018-07-22T04:38:40.144Z,19.93
2018-07-22T04:41:20.949Z,20.70
2018-07-22T04:44:01.710Z,19.83
2018-07-22T04:46:42.214Z,20.53
2018-07-22T04:49:23.306Z,19.83
2018-07-22T04:52:04.414Z,19.97
2018-07-22T04:54:45.361Z,19.00
2018-07-22T04:57:25.917Z,18.80
2018-07-22T05:00:07.044Z,20.17
2018-07-22T05:02:48.033Z,19.83
2018-07-22T05:05:28.699Z,20.77
2018-07-22T05:08:09.228Z,18.77
2018-07-22T05:10:49.755Z,19.80
2018-07-22T05:13:30.700Z,20.40
2018-07-22T05:16:11.518Z,20.70
2018-07-22T05:18:51.704Z,20.60
2018-07-22T05:21:32.846Z,20.17
2018-07-22T05:24:13.793Z,21.07
2018-07-22T05:26:54.901Z,21.63
2018-07-22T05:29:35.438Z,19.47
2018-07-22T05:32:16.253Z,20.27
2018-07-22T05:34:57.056Z,20.90
2018-07-22T05:37:38.353Z,19.87
2018-07-22T05:40:18.877Z,18.60
2018-07-22T05:42:59.610Z,20.90
2018-07-22T05:45:40.868Z,20.83
2018-07-22T05:48:21.530Z,18.63
2018-07-22T05:51:02.096Z,18.73
2018-07-22T05:53:42.736Z,18.43
2018-07-22T05:56:23.525Z,20.17
2018-07-22T05:59:04.491Z,19.70
2018-07-22T06:01:45.275Z,18.87
2018-07-22T06:04:26.548Z,19.50
2018-07-22T06:07:07.715Z,17.87
2018-07-22T06:09:48.880Z,19.50
2018-07-22T06:12:29.896Z,19.23
2018-07-22T06:15:10.721Z,18.97
2018-07-22T06:17:51.800Z,20.13
2018-07-22T06:20:33.822Z,19.83
2018-07-22T06:23:15.025Z,18.63
2018-07-22T06:25:56.311Z,17.60
2018-07-22T06:28:37.521Z,17.67
2018-07-22T06:31:18.370Z,18.83
2018-07-22T06:33:59.404Z,18.10
2018-07-22T06:36:40.333Z,19.03
2018-07-22T06:39:21.216Z,17.50
2018-07-22T06:42:02.304Z,18.50
2018-07-22T06:44:42.925Z,17.83
2018-07-22T06:47:23.636Z,16.83
2018-07-22T06:50:04.707Z,18.47
2018-07-22T06:52:45.490Z,16.57
2018-07-22T06:55:26.579Z,16.07
2018-07-22T06:58:07.841Z,18.33
2018-07-22T07:00:48.426Z,16.47
2018-07-22T07:03:29.210Z,16.23
2018-07-22T07:06:09.715Z,15.17
2018-07-22T07:08:50.656Z,15.63
2018-07-22T07:11:31.344Z,14.93
2018-07-22T07:14:12.093Z,14.60
2018-07-22T07:16:52.832Z,14.53
2018-07-22T07:19:33.578Z,13.80
2018-07-22T07:22:14.151Z,14.60
2018-07-22T07:24:54.736Z,13.00
2018-07-22T07:27:35.275Z,14.10
2018-07-22T07:30:15.892Z,14.27
2018-07-22T07:32:56.335Z,14.43
2018-07-22T07:35:37.140Z,14.93
2018-07-22T07:38:17.933Z,14.17
2018-07-22T07:40:58.956Z,14.53
2018-07-22T07:43:39.819Z,13.77
2018-07-22T07:46:20.674Z,14.40
2018-07-22T07:49:01.765Z,13.60
2018-07-22T07:51:42.492Z,12.87
2018-07-22T07:54:23.299Z,14.07
2018-07-22T07:57:03.721Z,13.03
2018-07-22T07:59:44.690Z,13.27
2018-07-22T08:02:26.336Z,12.87
2018-07-22T08:05:07.237Z,14.50
2018-07-22T08:07:48.024Z,14.27
2018-07-22T08:10:29.297Z,13.57
2018-07-22T08:13:10.325Z,11.63
2018-07-22T08:15:50.840Z,12.67
2018-07-22T08:18:31.715Z,12.63
2018-07-22T08:21:13.120Z,12.37
2018-07-22T08:23:54.426Z,12.67
2018-07-22T08:26:35.480Z,12.57
2018-07-22T08:29:23.534Z,12.57
2018-07-22T08:32:06.027Z,13.23
2018-07-22T08:34:47.148Z,13.03
2018-07-22T08:37:29.065Z,12.37
2018-07-22T08:40:10.390Z,12.10
2018-07-22T08:42:58.417Z,12.70
2018-07-22T08:45:39.337Z,11.23
2018-07-22T08:48:19.967Z,10.63
2018-07-22T08:51:00.929Z,10.77
2018-07-22T08:53:42.040Z,10.47
2018-07-22T08:56:22.986Z,10.47
2018-07-22T08:59:04.436Z,9.30
2018-07-22T09:01:45.074Z,9.53
2018-07-22T09:04:25.889Z,8.23
2018-07-22T09:07:06.556Z,8.53
2018-07-22T09:09:47.114Z,9.07
2018-07-22T09:12:28.251Z,8.93
2018-07-22T09:15:08.857Z,8.90
2018-07-22T09:17:49.733Z,7.87
2018-07-22T09:20:30.811Z,7.97
2018-07-22T09:23:11.871Z,7.40
2018-07-22T09:25:52.848Z,7.73
2018-07-22T09:28:33.417Z,6.80
2018-07-22T09:31:14.600Z,7.10
2018-07-22T09:33:55.754Z,6.40
2018-07-22T09:36:36.668Z,5.97
2018-07-22T09:39:18.194Z,6.33
2018-07-22T09:41:59.191Z,6.60
2018-07-22T09:44:40.424Z,6.97
2018-07-22T09:47:22.598Z,6.50
2018-07-22T09:50:03.032Z,6.43
2018-07-22T09:52:44.275Z,6.50
2018-07-22T09:55:25.736Z,6.77
2018-07-22T09:58:06.224Z,5.63
2018-07-22T10:00:53.447Z,5.83
2018-07-22T10:03:34.868Z,5.43
2018-07-22T10:06:15.381Z,6.73
2018-07-22T10:08:55.872Z,6.10
2018-07-22T10:11:36.358Z,6.70
2018-07-22T10:14:16.977Z,6.27
2018-07-22T10:16:57.926Z,6.13
2018-07-22T10:19:38.429Z,6.13
2018-07-22T10:22:18.948Z,6.17
2018-07-22T10:24:59.710Z,6.10
2018-07-22T10:27:41.092Z,6.33
2018-07-22T10:30:21.465Z,6.47
2018-07-22T10:33:02.186Z,6.77
2018-07-22T10:35:42.944Z,6.57
2018-07-22T10:38:23.597Z,6.13
2018-07-22T10:41:04.386Z,6.27
2018-07-22T10:43:45.407Z,6.57
2018-07-22T10:46:27.141Z,6.73
2018-07-22T10:49:08.214Z,6.83
2018-07-22T10:51:48.895Z,7.13
2018-07-22T10:54:29.459Z,6.70
2018-07-22T10:57:11.005Z,6.90
2018-07-22T10:59:51.751Z,7.57
2018-07-22T11:02:32.399Z,6.87
2018-07-22T11:05:13.010Z,6.60
2018-07-22T11:07:53.881Z,7.10
2018-07-22T11:10:34.424Z,6.67
2018-07-22T11:13:14.759Z,7.50
2018-07-22T11:15:55.534Z,7.07
2018-07-22T11:18:37.553Z,7.03
2018-07-22T11:21:18.410Z,7.57
2018-07-22T11:24:00.060Z,7.00
2018-07-22T11:29:40.626Z,7.47
2018-07-22T11:32:21.244Z,6.87
2018-07-22T11:35:02.121Z,7.20
2018-07-22T11:37:42.616Z,6.60
2018-07-22T11:40:23.552Z,6.77
2018-07-22T11:43:04.153Z,7.40
2018-07-22T11:45:45.293Z,6.67
2018-07-22T11:48:26.273Z,6.90
2018-07-22T11:51:07.009Z,7.47
2018-07-22T11:53:47.440Z,7.07
2018-07-22T11:56:28.349Z,7.13
2018-07-22T11:59:09.522Z,6.73
2018-07-22T12:01:49.932Z,7.23
2018-07-22T12:04:30.484Z,7.00
2018-07-22T12:07:11.774Z,6.93
2018-07-22T12:09:52.572Z,7.63
2018-07-22T12:12:33.963Z,7.13
2018-07-22T12:15:15.720Z,7.07
2018-07-22T12:17:56.668Z,6.70
2018-07-22T12:20:37.530Z,7.10
2018-07-22T12:23:18.817Z,7.40
2018-07-22T12:26:00.229Z,7.13
2018-07-22T12:28:40.989Z,6.90
2018-07-22T12:31:21.829Z,6.93
2018-07-22T12:34:03.882Z,7.03
2018-07-22T12:36:44.636Z,7.47
2018-07-22T12:39:25.208Z,7.50
2018-07-22T12:42:06.111Z,7.83
2018-07-22T12:44:46.617Z,8.30
2018-07-22T12:47:27.480Z,7.30
2018-07-22T12:50:08.011Z,7.33
2018-07-22T12:52:48.637Z,6.80
2018-07-22T12:55:29.347Z,7.07
2018-07-22T12:58:09.744Z,7.10
2018-07-22T13:00:50.144Z,7.40
2018-07-22T13:03:31.014Z,7.87
2018-07-22T13:06:11.738Z,7.43
2018-07-22T13:08:52.307Z,7.80
2018-07-22T13:11:33.292Z,7.23
2018-07-22T13:14:14.318Z,7.53
2018-07-22T13:16:55.163Z,6.90
2018-07-22T13:19:36.049Z,7.60
2018-07-22T13:22:16.492Z,7.80
2018-07-22T13:24:57.541Z,7.97
2018-07-22T13:27:38.357Z,7.17
2018-07-22T13:30:19.851Z,7.10
2018-07-22T13:33:00.360Z,7.13
2018-07-22T13:35:40.959Z,8.07
2018-07-22T13:38:21.960Z,7.60
2018-07-22T13:41:02.621Z,7.97
2018-07-22T13:43:43.558Z,7.47
2018-07-22T13:46:24.382Z,7.63
2018-07-22T13:49:04.964Z,8.23
2018-07-22T13:51:45.719Z,7.67
2018-07-22T13:54:26.322Z,7.80
2018-07-22T13:57:07.338Z,7.47
2018-07-22T13:59:48.294Z,7.80
2018-07-22T14:02:28.829Z,7.17
2018-07-22T14:05:12.153Z,8.47
2018-07-22T14:07:53.410Z,7.73
2018-07-22T14:10:34.253Z,7.77
2018-07-22T14:13:16.272Z,8.20
2018-07-22T14:15:57.075Z,7.33
2018-07-22T14:18:37.873Z,6.93
2018-07-22T14:21:18.436Z,7.70
2018-07-22T14:23:59.208Z,7.10
2018-07-22T14:26:40.509Z,7.60
2018-07-22T14:29:20.989Z,7.50
2018-07-22T14:32:02.195Z,8.47
2018-07-22T14:34:43.532Z,7.57
2018-07-22T14:37:37.378Z,7.93
2018-07-22T14:40:18.196Z,8.07
2018-07-22T14:42:59.099Z,7.97
2018-07-22T14:45:39.860Z,7.20
2018-07-22T14:48:21.095Z,8.30
2018-07-22T14:51:02.061Z,8.90
2018-07-22T14:53:42.543Z,8.70
2018-07-22T14:56:23.400Z,9.70
2018-07-22T14:59:04.324Z,7.90
2018-07-22T15:01:44.860Z,8.60
2018-07-22T15:04:25.480Z,8.70
2018-07-22T15:07:06.369Z,8.37
2018-07-22T15:09:47.151Z,9.37
2018-07-22T15:12:28.391Z,9.83
2018-07-22T15:15:09.129Z,9.63
2018-07-22T15:17:50.451Z,9.30
2018-07-22T15:20:31.273Z,9.33
2018-07-22T15:23:12.368Z,9.63
2018-07-22T15:25:53.633Z,11.40
2018-07-22T15:28:34.610Z,10.57
2018-07-22T15:31:15.088Z,11.27
2018-07-22T15:33:56.914Z,11.13
2018-07-22T15:36:37.479Z,11.60
2018-07-22T15:39:18.453Z,11.10
2018-07-22T15:41:59.082Z,10.40
2018-07-22T15:44:39.709Z,11.07
2018-07-22T15:47:20.668Z,11.07
2018-07-22T15:50:01.582Z,10.77
2018-07-22T15:52:42.099Z,11.80
2018-07-22T15:55:22.581Z,10.50
2018-07-22T15:58:03.422Z,10.40
2018-07-22T16:00:44.468Z,10.90
2018-07-22T16:03:25.176Z,10.87
2018-07-22T16:06:05.609Z,11.43
2018-07-22T16:08:46.132Z,10.87
2018-07-22T16:11:26.692Z,10.67
2018-07-22T16:14:07.957Z,10.07
2018-07-22T16:16:49.124Z,10.43
2018-07-22T16:19:30.079Z,10.30
2018-07-22T16:22:10.693Z,10.60
2018-07-22T16:24:51.267Z,10.77
2018-07-22T16:27:32.136Z,11.00
2018-07-22T16:30:13.670Z,10.43
2018-07-22T16:32:54.686Z,9.97
2018-07-22T16:35:35.313Z,10.50
2018-07-22T16:38:15.771Z,10.13
2018-07-22T16:40:56.490Z,10.07
2018-07-22T16:43:37.047Z,10.63
2018-07-22T16:46:17.600Z,10.83
2018-07-22T16:48:59.285Z,10.13
2018-07-22T16:51:39.972Z,9.37
2018-07-22T16:54:21.160Z,9.97
2018-07-22T16:57:01.858Z,10.03
2018-07-22T16:59:43.066Z,10.30
2018-07-22T17:02:23.513Z,9.93
2018-07-22T17:05:04.075Z,10.17
2018-07-22T17:07:44.616Z,9.80
2018-07-22T17:10:26.140Z,8.67
2018-07-22T17:13:07.466Z,9.60
2018-07-22T17:15:48.425Z,9.57
2018-07-22T17:18:29.800Z,9.20
2018-07-22T17:21:10.819Z,8.53
2018-07-22T17:23:51.817Z,9.20
2018-07-22T17:26:32.600Z,9.33
2018-07-22T17:29:13.372Z,9.87
2018-07-22T17:31:54.332Z,10.23
2018-07-22T17:34:35.297Z,9.67
2018-07-22T17:37:16.358Z,10.20
2018-07-22T17:39:59.791Z,10.23
2018-07-22T17:42:40.961Z,9.77
2018-07-22T17:45:22.067Z,10.10
2018-07-22T17:48:03.590Z,9.43
2018-07-22T17:50:44.466Z,11.17
2018-07-22T17:53:26.077Z,11.13
2018-07-22T17:56:07.288Z,10.70
2018-07-22T17:58:48.080Z,11.03
2018-07-22T18:01:30.286Z,10.63
2018-07-22T18:04:11.206Z,10.63
2018-07-22T18:06:52.104Z,10.10
2018-07-22T18:09:34.379Z,9.83
2018-07-22T18:12:15.955Z,8.93
2018-07-22T18:14:56.890Z,11.00
2018-07-22T18:17:38.287Z,9.70
2018-07-22T18:20:19.304Z,9.97
2018-07-22T18:23:00.123Z,10.23
2018-07-22T18:25:41.577Z,9.80
2018-07-22T18:28:23.125Z,10.20
2018-07-22T18:31:04.114Z,9.73
2018-07-22T18:33:45.144Z,10.73
2018-07-22T18:36:26.310Z,10.53
2018-07-22T18:39:10.309Z,10.47
2018-07-22T18:41:51.443Z,10.00
2018-07-22T18:44:32.609Z,10.10
2018-07-22T18:47:14.251Z,10.03
2018-07-22T18:49:55.188Z,10.70
2018-07-22T18:52:36.088Z,11.37
2018-07-22T18:55:18.186Z,10.63
2018-07-22T18:57:59.379Z,10.33
2018-07-22T19:00:40.340Z,10.57
2018-07-22T19:03:24.093Z,10.70
2018-07-22T19:06:04.800Z,9.83
2018-07-22T19:08:45.728Z,10.30
2018-07-22T19:11:26.686Z,11.57
2018-07-22T19:14:07.569Z,10.17
2018-07-22T19:16:48.309Z,10.87
2018-07-22T19:19:28.886Z,10.00
2018-07-22T19:22:10.537Z,10.33
2018-07-22T19:24:51.643Z,10.00
2018-07-22T19:27:32.884Z,10.27
2018-07-22T19:30:13.325Z,10.57
2018-07-22T19:32:53.848Z,10.57
2018-07-22T19:35:34.483Z,10.23
2018-07-22T19:38:15.353Z,9.90
2018-07-22T19:40:55.915Z,11.10
2018-07-22T19:43:37.198Z,10.00
2018-07-22T19:46:17.946Z,9.73
2018-07-22T19:48:58.847Z,10.10
2018-07-22T19:51:40.285Z,10.20
2018-07-22T19:54:22.109Z,10.97
2018-07-22T19:57:02.643Z,9.80
2018-07-22T19:59:43.003Z,9.40
2018-07-22T20:02:23.572Z,9.70
2018-07-22T20:05:04.121Z,9.63
2018-07-22T20:07:45.605Z,9.33
2018-07-22T20:10:26.685Z,9.93
2018-07-22T20:13:07.376Z,9.70
2018-07-22T20:15:48.376Z,10.07
2018-07-22T20:18:29.757Z,9.70
2018-07-22T20:21:10.227Z,10.20
2018-07-22T20:23:51.530Z,8.90
2018-07-22T20:26:32.364Z,8.80
2018-07-22T20:29:13.396Z,9.07
2018-07-22T20:31:54.781Z,9.37
2018-07-22T20:34:35.646Z,8.83
2018-07-22T20:37:16.216Z,9.03
2018-07-22T20:39:58.022Z,8.40
2018-07-22T20:42:39.182Z,9.00
2018-07-22T20:45:20.603Z,9.13
2018-07-22T20:48:01.761Z,9.57
2018-07-22T20:50:43.095Z,9.70
2018-07-22T20:53:24.875Z,9.40
2018-07-22T20:56:06.436Z,8.60
2018-07-22T20:58:49.185Z,9.13
2018-07-22T21:01:30.153Z,9.07
2018-07-22T21:04:10.747Z,9.50
2018-07-22T21:06:51.418Z,9.37
2018-07-22T21:09:32.605Z,11.00
2018-07-22T21:12:55.913Z,9.20
2018-07-22T21:15:37.434Z,10.70
2018-07-22T21:18:17.875Z,11.20
2018-07-22T21:20:58.680Z,10.73
2018-07-22T21:23:39.454Z,11.07
2018-07-22T21:26:20.084Z,10.50
2018-07-22T21:29:00.631Z,12.10
2018-07-22T21:31:41.744Z,10.80
2018-07-22T21:34:22.229Z,11.80
2018-07-22T21:37:03.141Z,11.67
2018-07-22T21:39:44.330Z,11.90
2018-07-22T21:42:24.761Z,11.00
2018-07-22T21:45:06.779Z,11.77
2018-07-22T21:47:47.428Z,12.23
2018-07-22T21:50:28.827Z,11.63
2018-07-22T21:53:09.402Z,11.23
2018-07-22T21:55:50.056Z,11.97
2018-07-22T21:58:31.047Z,12.07
2018-07-22T22:01:11.701Z,11.67
2018-07-22T22:03:52.777Z,12.13
2018-07-22T22:06:33.701Z,12.43
2018-07-22T22:09:14.291Z,12.87
2018-07-22T22:11:55.273Z,12.83
2018-07-22T22:14:36.573Z,12.30
2018-07-22T22:17:17.994Z,12.40
2018-07-22T22:19:59.070Z,12.53
2018-07-22T22:22:40.405Z,13.53
2018-07-22T22:25:22.299Z,13.37
2018-07-22T22:28:02.813Z,12.47
2018-07-22T22:30:43.555Z,13.20
2018-07-22T22:33:24.460Z,13.10
2018-07-22T22:36:05.122Z,13.37
2018-07-22T22:38:46.041Z,13.27
2018-07-22T22:41:26.833Z,13.00
2018-07-22T22:44:08.204Z,13.83
2018-07-22T22:46:49.131Z,13.60
2018-07-22T22:49:30.412Z,13.37
2018-07-22T22:52:11.356Z,13.73
2018-07-22T22:54:52.376Z,13.27
2018-07-22T22:57:34.150Z,13.47
2018-07-22T23:00:14.672Z,14.47
2018-07-22T23:02:55.727Z,13.93
2018-07-22T23:05:36.498Z,13.20
2018-07-22T23:08:17.491Z,13.60
2018-07-22T23:10:58.408Z,14.10
2018-07-22T23:13:39.230Z,13.47
2018-07-22T23:16:21.014Z,14.20
2018-07-22T23:19:02.317Z,13.70
2018-07-22T23:21:44.584Z,14.00
2018-07-22T23:24:25.542Z,14.37
2018-07-22T23:27:06.464Z,14.20
2018-07-22T23:29:47.046Z,15.23
2018-07-22T23:32:29.511Z,13.57
2018-07-22T23:35:10.274Z,13.43
2018-07-22T23:37:51.112Z,13.33
2018-07-22T23:40:32.172Z,13.43
2018-07-22T23:43:13.352Z,13.47
2018-07-22T23:45:54.373Z,13.27
2018-07-22T23:48:35.000Z,13.43
2018-07-22T23:51:16.083Z,13.60
2018-07-22T23:53:57.916Z,14.13
2018-07-22T23:56:38.852Z,14.10
2018-07-22T23:59:19.345Z,13.77
